XBR weather

Brockville - Thousand Islands Regional Tackaberry Airport
Brockville, Ontario, Canada

Public forecast

Using degrees Celsius for public forecast. Weather courtesy of forecast.io.

METAR (pilot weather report)

Closest report is Wheeler Sack Army Air Field, 35.1 nm (65.0 km) S. Retrieved 2019/01/17 15:56 UTC (55 minutes ago):

KGTB 171556Z AUTO 13004KT 10SM CLR M14/M20 A3038 RMK AO2 SLP306 T11441205

TAF (pilot weather forecast)

Forecast is more than 6 hours old.

Closest forecast is Wheeler Sack Army Air Field, 35.1 nm (65.0 km) S. Retrieved 2019/01/17 09:09 UTC (8 hours ago):

TAF KGTB 170900Z 1709/1815 VRB06KT 9999 FEW200 QNH3012INS BECMG 1723/1724 17006KT 9999 BKN100 QNH2997INS BECMG 1805/1806 18009KT 9999 BKN030 620309 QNH2989INS BECMG 1810/1811 20009KT 6000 -SN BKN010 OVC025 620109 QNH2988INS TXM07/1721Z TNM23/1711Z